Time;durP1;ratioP1;P1;durP2;ratioP2;P2;SDS_P1;SDS_P2;PMS_P1;PMS_P2;Temp;Humidity;BMP_temperature;BMP_pressure;BME280_temperature;BME280_humidity;BME280_pressure;Samples;Min_cycle;Max_cycle;Signal;HPM_P1;HPM_P2
2022/01/26 00:05:43;;;;;;;25.23;18.33;;;;;;;;;;5053983;28;20131;-45
2022/01/26 00:06:32;;;;;;;25.50;18.73;;;;;;;;;;5053894;28;20450;-45
2022/01/26 00:08:59;;;;;;;27.38;19.25;;;;;;;;;;5053964;28;20125;-45
2022/01/26 00:11:27;;;;;;;23.48;17.63;;;;;;;;;;5053776;28;20025;-45
2022/01/26 00:13:53;;;;;;;24.45;18.00;;;;;;;;;;5053653;28;20111;-46
2022/01/26 00:16:27;;;;;;;25.75;17.83;;;;;;;;;;5053682;28;20032;-46
2022/01/26 00:18:58;;;;;;;23.63;17.83;;;15.50;90.90;;;;;;5053650;28;20021;-46
2022/01/26 00:21:30;;;;;;;24.38;18.55;;;;;;;;;;5053596;28;20016;-46
2022/01/26 00:29:08;;;;;;;24.27;18.90;;;;;;;;;;5052893;28;20047;-46
2022/01/26 00:40:11;;;;;;;;;;;15.40;90.50;;;;;;5053949;28;20399;-46
2022/01/26 00:42:40;;;;;;;24.05;17.70;;;;;;;;;;5053139;28;19905;-45
2022/01/26 00:45:06;;;;;;;26.80;18.90;;;;;;;;;;5053035;28;20033;-45
2022/01/26 00:47:33;;;;;;;24.55;19.23;;;;;;;;;;5053317;28;20060;-46
2022/01/26 00:50:03;;;;;;;24.77;17.75;;;;;;;;;;5052882;28;20033;-46
2022/01/26 00:52:39;;;;;;;24.58;17.75;;;;;;;;;;5053247;28;20372;-46
2022/01/26 00:55:14;;;;;;;27.60;18.85;;;15.20;86.00;;;;;;5053132;28;20028;-46
2022/01/26 00:57:40;;;;;;;25.05;17.98;;;;;;;;;;5052852;28;20021;-48
2022/01/26 01:00:09;;;;;;;25.10;19.02;;;15.20;91.30;;;;;;5052756;28;20139;-48
2022/01/26 01:02:35;;;;;;;23.90;17.53;;;;;;;;;;5052448;28;20445;-47
2022/01/26 01:05:07;;;;;;;24.10;17.80;;;;;;;;;;5052675;28;20112;-47
2022/01/26 01:07:37;;;;;;;24.50;17.35;;;;;;;;;;5052915;28;20100;-47
2022/01/26 01:10:04;;;;;;;24.15;17.92;;;;;;;;;;5052567;28;20033;-47
2022/01/26 01:12:32;;;;;;;25.15;18.67;;;;;;;;;;5052765;28;20086;-48
2022/01/26 01:14:57;;;;;;;24.60;18.08;;;;;;;;;;5052752;28;20028;-49
2022/01/26 01:17:31;;;;;;;23.73;18.13;;;;;;;;;;5052424;28;20032;-48
2022/01/26 01:20:44;;;;;;;24.77;18.35;;;;;;;;;;5052428;28;20527;-47
2022/01/26 01:23:15;;;;;;;23.88;17.55;;;;;;;;;;5051092;28;20040;-47
2022/01/26 01:30:45;;;;;;;27.20;19.02;;;;;;;;;;5052362;28;20071;-47
2022/01/26 01:33:17;;;;;;;23.77;18.02;;;;;;;;;;5052565;28;20111;-47
2022/01/26 01:35:44;;;;;;;25.95;18.27;;;;;;;;;;5052524;28;20033;-47
2022/01/26 01:38:15;;;;;;;26.08;18.90;;;;;;;;;;5051980;28;20029;-47
2022/01/26 01:40:43;;;;;;;25.25;17.85;;;15.00;91.20;;;;;;5052438;28;20434;-48
2022/01/26 01:43:10;;;;;;;26.55;18.27;;;15.00;91.20;;;;;;5052353;28;20029;-48
2022/01/26 01:45:42;;;;;;;26.52;17.85;;;15.00;91.30;;;;;;5052008;28;20033;-47
2022/01/26 01:48:08;;;;;;;23.98;17.55;;;;;;;;;;5052149;28;20116;-46
2022/01/26 01:50:40;;;;;;;26.23;17.95;;;;;;;;;;5052036;28;20037;-46
2022/01/26 01:53:06;;;;;;;27.35;17.95;;;;;;;;;;5051966;28;20063;-46
2022/01/26 01:55:32;;;;;;;24.02;18.10;;;;;;;;;;5051892;28;20057;-45
2022/01/26 01:57:59;;;;;;;25.52;17.52;;;;;;;;;;5051952;28;20104;-45
2022/01/26 02:00:26;;;;;;;24.10;17.67;;;14.90;91.20;;;;;;5051872;28;20109;-45
2022/01/26 02:02:52;;;;;;;24.15;17.33;;;;;;;;;;5050359;28;20514;-45
2022/01/26 02:05:18;;;;;;;26.30;18.15;;;;;;;;;;5052151;28;20029;-46
2022/01/26 02:07:44;;;;;;;24.83;17.73;;;;;;;;;;5052026;28;20036;-48
2022/01/26 02:10:10;;;;;;;23.48;16.48;;;;;;;;;;5051811;28;20041;-47
2022/01/26 02:12:42;;;;;;;25.58;18.00;;;;;;;;;;5051741;28;20025;-47
2022/01/26 02:15:15;;;;;;;21.23;16.27;;;;;;;;;;5051817;28;20052;-47
2022/01/26 02:17:54;;;;;;;25.15;18.30;;;;;;;;;;5052031;28;20104;-46
2022/01/26 02:20:46;;;;;;;23.77;17.17;;;;;;;;;;5051999;28;20032;-47
2022/01/26 02:56:29;;;;;;;24.70;17.55;;;;;;;;;;5055355;28;20040;-46
2022/01/26 03:01:54;;;;;;;27.65;19.15;;;;;;;;;;5055347;28;20118;-48
2022/01/26 03:07:03;;;;;;;25.60;17.77;;;;;;;;;;5055206;28;20035;-47
2022/01/26 03:09:35;;;;;;;29.77;19.90;;;;;;;;;;5054906;28;20036;-47
2022/01/26 03:12:03;;;;;;;27.40;18.30;;;;;;;;;;5054854;28;20090;-46
2022/01/26 03:14:44;;;;;;;25.52;17.50;;;;;;;;;;5054874;28;20032;-47
2022/01/26 03:19:49;;;;;;;26.55;17.35;;;;;;;;;;5055059;28;20059;-47
2022/01/26 03:35:59;;;;;;;27.40;18.35;;;;;;;;;;5042148;28;20036;-46
2022/01/26 03:38:50;;;;;;;26.23;17.77;;;;;;;;;;5054695;28;20032;-45
2022/01/26 03:43:40;;;;;;;26.33;17.92;;;;;;;;;;5054652;28;20040;-46
2022/01/26 03:46:07;;;;;;;27.42;18.65;;;;;;;;;;5054215;28;20111;-45
2022/01/26 03:48:33;;;;;;;29.25;19.25;;;;;;;;;;5054113;28;20021;-46
2022/01/26 03:51:00;;;;;;;25.75;17.65;;;;;;;;;;5054180;28;20055;-46
2022/01/26 03:53:25;;;;;;;27.42;17.92;;;;;;;;;;5054116;28;20036;-46
2022/01/26 03:55:51;;;;;;;26.15;18.10;;;;;;;;;;5054021;28;20029;-46
2022/01/26 03:58:17;;;;;;;26.80;19.25;;;;;;;;;;5054047;28;20028;-46
2022/01/26 04:00:44;;;;;;;26.88;18.05;;;;;;;;;;5053972;28;20388;-46
2022/01/26 04:03:10;;;;;;;25.80;17.85;;;;;;;;;;5053593;28;20131;-46
2022/01/26 04:05:36;;;;;;;28.40;19.05;;;;;;;;;;5053876;28;20089;-45
2022/01/26 04:08:08;;;;;;;27.92;18.20;;;;;;;;;;5054063;28;20491;-46
2022/01/26 04:10:50;;;;;;;27.95;17.80;;;;;;;;;;5054121;28;20435;-46
2022/01/26 04:13:16;;;;;;;27.00;19.33;;;;;;;;;;5053723;28;20513;-45
2022/01/26 04:15:43;;;;;;;29.65;19.27;;;;;;;;;;5053700;28;20049;-46
2022/01/26 04:18:13;;;;;;;27.88;18.48;;;;;;;;;;5053673;28;20109;-46
2022/01/26 04:20:44;;;;;;;27.73;19.05;;;;;;;;;;5053559;28;20075;-45
2022/01/26 04:25:46;;;;;;;28.90;18.65;;;;;;;;;;5060481;28;19911;-46
2022/01/26 04:28:18;;;;;;;28.38;18.27;;;;;;;;;;5053231;28;20476;-46
2022/01/26 04:30:44;;;;;;;31.38;20.83;;;;;;;;;;5053636;28;20037;-46
2022/01/26 04:33:10;;;;;;;30.38;19.98;;;;;;;;;;5053282;28;20035;-47
2022/01/26 04:35:42;;;;;;;26.02;18.17;;;;;;;;;;5053518;28;20033;-46
2022/01/26 04:40:40;;;;;;;30.73;19.85;;;;;;;;;;5053531;28;20380;-46
2022/01/26 04:43:14;;;;;;;28.42;18.95;;;;;;;;;;5053354;28;20037;-47
2022/01/26 04:45:40;;;;;;;30.67;19.83;;;;;;;;;;5053431;28;20029;-47
2022/01/26 04:48:06;;;;;;;30.83;19.75;;;;;;;;;;5052979;28;20086;-46
2022/01/26 04:50:32;;;;;;;27.92;18.38;;;;;;;;;;5053014;28;20072;-46
2022/01/26 04:52:58;;;;;;;28.58;18.35;;;;;;;;;;5053003;28;20028;-46
2022/01/26 04:55:24;;;;;;;28.77;18.90;;;;;;;;;;5052899;28;20056;-46
2022/01/26 04:57:50;;;;;;;30.52;19.75;;;;;;;;;;5052871;28;20025;-46
2022/01/26 05:00:16;;;;;;;28.80;18.77;;;;;;;;;;5052780;28;20040;-46
2022/01/26 05:02:42;;;;;;;32.20;19.30;;;;;;;;;;5052567;28;20053;-46
2022/01/26 05:05:08;;;;;;;29.13;18.70;;;;;;;;;;5052732;28;20074;-46
2022/01/26 05:07:35;;;;;;;27.48;18.42;;;;;;;;;;5052682;28;20078;-46
2022/01/26 05:10:03;;;;;;;27.70;18.73;;;;;;;;;;5052658;28;20032;-46
2022/01/26 05:12:29;;;;;;;31.23;20.10;;;;;;;;;;5052918;28;20032;-46
2022/01/26 05:14:55;;;;;;;30.33;18.50;;;;;;;;;;5052332;28;20094;-45
2022/01/26 05:17:23;;;;;;;29.65;19.52;;;;;;;;;;5052524;28;20479;-47
2022/01/26 05:19:54;;;;;;;31.80;20.30;;;;;;;;;;5052510;28;20154;-46
2022/01/26 05:22:20;;;;;;;31.27;19.52;;;;;;;;;;5052735;28;20029;-45
2022/01/26 05:24:47;;;;;;;28.95;19.77;;;;;;;;;;5052410;28;20476;-46
2022/01/26 05:27:13;;;;;;;30.33;19.33;;;;;;;;;;5052584;28;20029;-46
2022/01/26 05:29:39;;;;;;;30.30;19.23;;;;;;;;;;5052320;28;20047;-46
2022/01/26 05:32:05;;;;;;;28.63;18.88;;;;;;;;;;5052376;28;20024;-45
2022/01/26 05:34:31;;;;;;;28.83;19.58;;;;;;;;;;5052259;28;20040;-46
2022/01/26 05:36:58;;;;;;;29.65;18.95;;;;;;;;;;5052267;28;20028;-46
2022/01/26 05:39:24;;;;;;;30.02;19.42;;;;;;;;;;5052172;28;20112;-46
2022/01/26 05:41:50;;;;;;;30.20;20.00;;;;;;;;;;5052152;28;20025;-46
2022/01/26 05:44:16;;;;;;;28.88;19.05;;;;;;;;;;5052065;28;20107;-45
2022/01/26 05:46:46;;;;;;;29.38;18.98;;;;;;;;;;5052086;28;20056;-47
2022/01/26 05:49:13;;;;;;;30.65;19.67;;;;;;;;;;5052351;28;20033;-48
2022/01/26 05:51:39;;;;;;;29.73;19.38;;;;;;;;;;5052031;28;20025;-48
2022/01/26 05:54:05;;;;;;;28.48;18.50;;;;;;;;;;5052228;28;20115;-47
2022/01/26 05:56:31;;;;;;;32.58;20.67;;;;;;;;;;5051911;28;20429;-47
2022/01/26 05:58:57;;;;;;;29.95;19.02;;;14.10;91.50;;;;;;5051966;28;20108;-46
2022/01/26 06:01:24;;;;;;;30.42;19.38;;;;;;;;;;5051806;28;20393;-46
2022/01/26 06:03:50;;;;;;;28.27;18.63;;;;;;;;;;5051754;28;20057;-46
2022/01/26 06:06:16;;;;;;;27.67;17.65;;;;;;;;;;5051985;28;20028;-46
2022/01/26 06:08:42;;;;;;;25.00;16.58;;;;;;;;;;5051866;28;20041;-46
2022/01/26 06:11:08;;;;;;;27.67;17.65;;;;;;;;;;5051911;28;20032;-48
2022/01/26 06:13:35;;;;;;;24.73;16.52;;;;;;;;;;5051765;28;20033;-47
2022/01/26 06:16:01;;;;;;;24.55;16.63;;;;;;;;;;5051861;28;20032;-47
2022/01/26 06:18:27;;;;;;;22.02;14.35;;;;;;;;;;5051806;28;20070;-48
2022/01/26 06:20:53;;;;;;;20.90;14.93;;;;;;;;;;5051793;28;20434;-47
2022/01/26 06:23:24;;;;;;;22.98;13.93;;;;;;;;;;5051983;28;20044;-46
2022/01/26 06:25:51;;;;;;;19.85;13.65;;;;;;;;;;5053135;28;20036;-48
2022/01/26 06:28:17;;;;;;;20.50;12.90;;;;;;;;;;5055889;28;20051;-47
2022/01/26 06:30:46;;;;;;;20.15;13.82;;;15.30;91.40;;;;;;5055656;28;20032;-47
2022/01/26 06:33:13;;;;;;;18.03;12.57;;;;;;;;;;5055907;28;20017;-47
2022/01/26 06:35:39;;;;;;;17.00;11.80;;;;;;;;;;5055562;28;20482;-48
2022/01/26 06:38:05;;;;;;;16.83;11.43;;;;;;;;;;5055519;28;20475;-48
2022/01/26 06:40:31;;;;;;;17.38;11.25;;;;;;;;;;5055415;28;20041;-47
2022/01/26 06:43:05;;;;;;;18.17;11.55;;;;;;;;;;5055477;28;20029;-46
2022/01/26 06:45:35;;;;;;;20.88;12.43;;;;;;;;;;5055637;28;20227;-48
2022/01/26 06:50:27;;;;;;;15.80;10.57;;;;;;;;;;5055566;28;20493;-48
2022/01/26 06:52:53;;;;;;;16.13;11.20;;;;;;;;;;5055219;28;20032;-48
2022/01/26 06:55:19;;;;;;;15.20;10.90;;;;;;;;;;5055214;28;20036;-46
2022/01/26 06:57:45;;;;;;;15.38;9.75;;;;;;;;;;5055136;28;20078;-47
2022/01/26 07:00:12;;;;;;;14.20;9.82;;;;;;;;;;5055158;28;20036;-46
2022/01/26 07:02:39;;;;;;;13.77;9.30;;;;;;;;;;5054867;28;20124;-48
2022/01/26 07:05:05;;;;;;;13.90;9.82;;;;;;;;;;5055151;28;20103;-50
2022/01/26 07:07:31;;;;;;;15.20;9.02;;;;;;;;;;5055096;28;20256;-49
2022/01/26 07:09:57;;;;;;;13.43;8.70;;;;;;;;;;5054965;28;20048;-49
2022/01/26 07:12:23;;;;;;;15.25;9.57;;;;;;;;;;5055019;28;20033;-50
2022/01/26 07:22:47;;;;;;;15.48;11.13;;;;;;;;;;5055103;28;20036;-48
2022/01/26 07:25:13;;;;;;;15.38;10.07;;;;;;;;;;5054822;28;20021;-49
2022/01/26 07:27:40;;;;;;;14.68;9.82;;;;;;;;;;5054676;28;20064;-51
2022/01/26 07:30:07;;;;;;;15.02;10.25;;;;;;;;;;5054573;28;20541;-49
2022/01/26 07:32:35;;;;;;;17.10;9.93;;;;;;;;;;5054667;28;20345;-48
2022/01/26 07:35:01;;;;;;;14.77;9.95;;;;;;;;;;5054833;28;20397;-49
2022/01/26 07:37:27;;;;;;;16.45;10.13;;;;;;;;;;5054225;28;20025;-48
2022/01/26 07:40:09;;;;;;;13.32;9.88;;;;;;;;;;5054539;28;20033;-48
2022/01/26 07:42:35;;;;;;;13.80;9.45;;;;;;;;;;5054535;28;20113;-48
2022/01/26 07:45:04;;;;;;;14.88;9.70;;;16.00;90.80;;;;;;5054368;28;20037;-48
2022/01/26 07:47:31;;;;;;;16.17;9.18;;;;;;;;;;5054337;28;20035;-49
2022/01/26 07:50:02;;;;;;;14.07;9.75;;;16.10;90.80;;;;;;5054190;28;20123;-48
2022/01/26 07:52:33;;;;;;;14.63;9.80;;;;;;;;;;5054578;28;20116;-48
2022/01/26 07:54:59;;;;;;;12.93;8.88;;;;;;;;;;5054436;28;20029;-49
2022/01/26 07:57:26;;;;;;;16.30;9.00;;;;;;;;;;5054261;28;20156;-48
2022/01/26 07:59:53;;;;;;;13.18;8.52;;;;;;;;;;5054568;28;20081;-46
2022/01/26 08:02:21;;;;;;;14.48;9.43;;;;;;;;;;5053692;28;20032;-46
2022/01/26 08:04:47;;;;;;;12.00;8.38;;;;;;;;;;5054276;28;20040;-46
2022/01/26 08:07:12;;;;;;;13.18;8.13;;;;;;;;;;5053923;28;20032;-46
2022/01/26 08:09:43;;;;;;;11.70;8.57;;;;;;;;;;5053859;28;20043;-47
2022/01/26 08:12:10;;;;;;;15.75;8.07;;;;;;;;;;5054131;28;20380;-46
2022/01/26 08:14:35;;;;;;;13.07;8.65;;;;;;;;;;5054158;28;20032;-46
2022/01/26 08:17:02;;;;;;;12.40;9.07;;;;;;;;;;5053852;28;20107;-46
2022/01/26 08:19:28;;;;;;;13.73;8.48;;;;;;;;;;5053633;28;20535;-46
2022/01/26 08:21:59;;;;;;;12.63;7.93;;;;;;;;;;5053669;28;20072;-46
2022/01/26 08:24:25;;;;;;;16.65;7.18;;;;;;;;;;5053889;28;20028;-47
2022/01/26 08:26:51;;;;;;;13.13;9.35;;;;;;;;;;5053474;28;20029;-45
2022/01/26 08:29:23;;;;;;;12.25;8.35;;;16.20;90.00;;;;;;5053634;28;20128;-45
2022/01/26 08:31:49;;;;;;;10.98;7.97;;;;;;;;;;5053760;28;20383;-45
2022/01/26 08:34:17;;;;;;;14.80;9.00;;;;;;;;;;5053455;28;20029;-48
2022/01/26 08:36:43;;;;;;;14.20;8.57;;;;;;;;;;5053337;28;20021;-47
2022/01/26 08:39:09;;;;;;;13.65;8.90;;;;;;;;;;5053279;28;20112;-47
2022/01/26 08:41:35;;;;;;;16.63;9.60;;;;;;;;;;5053551;28;20395;-48
2022/01/26 08:44:01;;;;;;;16.90;10.32;;;;;;;;;;5053461;28;20020;-49
2022/01/26 08:46:27;;;;;;;16.67;10.23;;;;;;;;;;5053143;28;20464;-47
2022/01/26 08:48:53;;;;;;;23.17;12.40;;;;;;;;;;5052275;28;20117;-47
2022/01/26 08:51:19;;;;;;;23.15;11.80;;;;;;;;;;5053156;28;20029;-47
2022/01/26 08:53:46;;;;;;;20.70;10.55;;;;;;;;;;5053134;28;20021;-48
2022/01/26 08:56:12;;;;;;;16.85;9.80;;;;;;;;;;5052912;28;20035;-48
2022/01/26 08:58:38;;;;;;;16.40;9.93;;;;;;;;;;5052923;28;20036;-47
2022/01/26 09:01:04;;;;;;;19.95;9.10;;;;;;;;;;5052919;28;20021;-47
2022/01/26 09:03:34;;;;;;;19.20;9.52;;;;;;;;;;5052731;28;20059;-48
2022/01/26 09:06:00;;;;;;;21.60;9.95;;;;;;;;;;5053205;28;20079;-48
2022/01/26 09:08:26;;;;;;;17.10;9.18;;;;;;;;;;5052786;28;20044;-47
2022/01/26 09:10:57;;;;;;;15.32;9.13;;;;;;;;;;5053094;28;20025;-45
2022/01/26 09:13:24;;;;;;;15.10;9.38;;;;;;;;;;5053051;28;20040;-46
2022/01/26 09:15:50;;;;;;;14.93;7.60;;;;;;;;;;5052720;28;20078;-46
2022/01/26 09:18:20;;;;;;;14.23;8.52;;;;;;;;;;5052909;28;20107;-45
2022/01/26 09:20:46;;;;;;;11.40;7.65;;;;;;;;;;5052671;28;20059;-46
2022/01/26 09:23:12;;;;;;;13.23;7.78;;;;;;;;;;5052583;28;20082;-46
2022/01/26 09:25:38;;;;;;;14.07;7.88;;;;;;;;;;5052461;28;20052;-45
2022/01/26 09:28:04;;;;;;;12.50;7.53;;;;;;;;;;5052861;28;20021;-49
2022/01/26 09:30:30;;;;;;;16.85;8.20;;;;;;;;;;5052508;28;20033;-51
2022/01/26 09:32:56;;;;;;;13.52;8.30;;;;;;;;;;5052386;28;20039;-48
2022/01/26 09:35:22;;;;;;;12.20;7.57;;;;;;;;;;5052620;28;20032;-51
2022/01/26 09:37:48;;;;;;;11.75;7.30;;;;;;;;;;5052283;28;20029;-50
2022/01/26 09:40:14;;;;;;;15.30;8.02;;;;;;;;;;5052273;28;20383;-51
2022/01/26 09:42:40;;;;;;;15.23;7.53;;;16.50;91.50;;;;;;5052339;28;20029;-49
2022/01/26 09:45:07;;;;;;;14.68;7.57;;;16.30;91.50;;;;;;5052346;28;20032;-50
2022/01/26 09:47:33;;;;;;;11.32;6.22;;;;;;;;;;5052627;28;20063;-45
2022/01/26 09:50:02;;;;;;;12.68;6.63;;;;;;;;;;5052142;28;20119;-44
2022/01/26 09:52:34;;;;;;;11.40;6.47;;;;;;;;;;5052005;28;20021;-44
2022/01/26 09:55:01;;;;;;;10.65;6.50;;;;;;;;;;5052318;28;20395;-45
2022/01/26 09:57:28;;;;;;;10.93;6.35;;;16.70;91.60;;;;;;5052076;28;20310;-45
2022/01/26 09:59:54;;;;;;;10.50;6.53;;;;;;;;;;5052589;28;20013;-46
2022/01/26 10:02:21;;;;;;;11.50;6.28;;;;;;;;;;5051870;28;20033;-46
2022/01/26 10:04:47;;;;;;;11.43;5.68;;;;;;;;;;5052120;28;20067;-46
2022/01/26 10:07:28;;;;;;;11.18;5.75;;;16.80;90.90;;;;;;5052126;28;20029;-46
2022/01/26 10:15:35;;;;;;;7.78;5.47;;;;;;;;;;5052295;28;20116;-45
2022/01/26 10:18:14;;;;;;;8.80;5.22;;;16.80;90.90;;;;;;5051990;28;20048;-44
2022/01/26 10:20:50;;;;;;;8.90;5.80;;;16.80;85.50;;;;;;5052343;28;20387;-45
2022/01/26 10:23:18;;;;;;;11.43;6.28;;;16.80;91.00;;;;;;5052122;28;20109;-46
2022/01/26 10:26:04;;;;;;;9.68;5.07;;;16.80;86.00;;;;;;5051921;28;20514;-45
2022/01/26 10:29:00;;;;;;;9.20;6.03;;;16.80;86.10;;;;;;5051854;28;20544;-45
2022/01/26 10:31:26;;;;;;;9.98;5.60;;;;;;;;;;5039384;28;20067;-46
2022/01/26 10:33:59;;;;;;;12.15;4.80;;;16.60;91.00;;;;;;5051916;28;20044;-45
2022/01/26 10:36:38;;;;;;;8.60;5.28;;;16.70;86.00;;;;;;5052065;28;20083;-46
2022/01/26 10:39:33;;;;;;;8.55;4.95;;;16.70;85.60;;;;;;5052099;28;20068;-44
2022/01/26 10:42:05;;;;;;;8.13;4.90;;;16.60;90.90;;;;;;5051805;28;20025;-52
2022/01/26 10:44:47;;;;;;;10.23;5.55;;;16.70;85.50;;;;;;5051588;28;20029;-52
2022/01/26 10:47:15;;;;;;;7.72;4.63;;;;;;;;;;5051598;28;20029;-49
2022/01/26 10:52:37;;;;;;;9.07;6.10;;;16.60;85.70;;;;;;5051624;28;20023;-48
2022/01/26 10:55:05;;;;;;;10.98;5.97;;;16.50;90.10;;;;;;5051769;28;20036;-50
2022/01/26 10:57:31;;;;;;;9.10;5.43;;;;;;;;;;5051478;28;20083;-47
2022/01/26 10:59:58;;;;;;;10.10;5.55;;;;;;;;;;5051530;28;20025;-44
2022/01/26 11:02:27;;;;;;;10.82;6.05;;;;;;;;;;5051302;28;20577;-44
2022/01/26 11:04:54;;;;;;;9.63;5.75;;;;;;;;;;5051833;28;20029;-44
2022/01/26 11:07:19;;;;;;;9.75;6.15;;;;;;;;;;5051535;28;20454;-44
2022/01/26 11:09:47;;;;;;;10.90;6.43;;;16.30;90.80;;;;;;5051392;28;20079;-44
2022/01/26 11:12:15;;;;;;;13.13;7.60;;;16.20;90.60;;;;;;5052986;28;20045;-46
2022/01/26 11:14:50;;;;;;;13.18;7.25;;;16.30;84.90;;;;;;5054939;28;20017;-45
2022/01/26 11:17:28;;;;;;;12.60;6.40;;;16.20;84.90;;;;;;5054933;28;20025;-44
2022/01/26 11:19:57;;;;;;;12.85;7.72;;;16.20;90.50;;;;;;5054977;28;20035;-48
2022/01/26 11:22:28;;;;;;;11.38;6.93;;;;;;;;;;5054911;28;20024;-48
2022/01/26 11:24:54;;;;;;;12.20;7.50;;;;;;;;;;5054662;28;20398;-47
2022/01/26 11:27:20;;;;;;;15.32;7.05;;;;;;;;;;5054645;28;20430;-48
2022/01/26 11:29:52;;;;;;;12.48;7.40;;;16.00;88.00;;;;;;5054407;28;20063;-47
2022/01/26 11:32:37;;;;;;;12.27;7.53;;;16.20;84.60;;;;;;5054891;28;20391;-47
2022/01/26 11:35:08;;;;;;;13.82;7.97;;;15.90;84.80;;;;;;5054582;28;20029;-49
2022/01/26 11:37:42;;;;;;;14.70;8.80;;;15.90;90.30;;;;;;5054630;28;20155;-48
2022/01/26 11:45:25;;;;;;;9.90;6.32;;;16.00;90.40;;;;;;5054711;28;20029;-48
2022/01/26 11:48:09;;;;;;;11.57;7.20;;;16.00;84.40;;;;;;5054607;28;20033;-49
2022/01/26 11:50:38;;;;;;;15.63;7.25;;;16.10;90.80;;;;;;5054351;28;20041;-48
2022/01/26 11:53:09;;;;;;;9.07;6.15;;;;;;;;;;5054026;28;20025;-50
2022/01/26 11:55:46;;;;;;;13.73;7.03;;;16.10;86.80;;;;;;5054033;28;20033;-45
2022/01/26 11:58:15;;;;;;;11.52;6.90;;;16.00;92.10;;;;;;5054330;28;20025;-46
2022/01/26 12:03:36;;;;;;;13.85;7.03;;;;;;;;;;5053809;28;20102;-45
2022/01/26 12:06:02;;;;;;;13.93;7.20;;;;;;;;;;5054013;28;20368;-46
2022/01/26 12:08:33;;;;;;;11.02;6.43;;;;;;;;;;5054078;28;20028;-45
2022/01/26 12:11:00;;;;;;;14.13;7.60;;;;;;;;;;5053837;28;20545;-46
2022/01/26 12:13:28;;;;;;;10.60;6.70;;;15.80;93.10;;;;;;5053821;28;20104;-46
2022/01/26 12:15:57;;;;;;;10.77;7.13;;;;;;;;;;5054046;28;20411;-46
2022/01/26 12:18:46;;;;;;;11.77;6.70;;;15.90;93.40;;;;;;5053697;28;20031;-45
2022/01/26 12:43:34;;;;;;;9.23;5.57;;;;;;;;;;5053273;28;20087;-49
2022/01/26 12:46:00;;;;;;;7.97;5.85;;;;;;;;;;5053468;28;20021;-48
2022/01/26 12:48:27;;;;;;;6.38;5.20;;;;;;;;;;5053290;28;20045;-50
2022/01/26 12:50:54;;;;;;;9.63;5.80;;;;;;;;;;5053187;28;20064;-46
2022/01/26 12:53:27;;;;;;;7.22;5.38;;;16.20;90.40;;;;;;5053354;28;20025;-46
2022/01/26 12:55:56;;;;;;;8.20;4.97;;;16.30;93.40;;;;;;5053074;28;20391;-45
2022/01/26 12:58:31;;;;;;;7.38;5.30;;;16.50;90.50;;;;;;5053152;28;20379;-47
2022/01/26 13:01:20;;;;;;;6.05;5.07;;;;;;;;;;5052903;28;20174;-45
2022/01/26 13:03:48;;;;;;;8.65;5.38;;;16.40;93.20;;;;;;5044656;28;20167;-45
2022/01/26 13:06:23;;;;;;;7.65;5.53;;;16.60;93.10;;;;;;5052826;28;20455;-45
2022/01/26 13:08:50;;;;;;;8.90;5.55;;;16.60;93.20;;;;;;5052875;28;20095;-49
2022/01/26 13:11:27;;;;;;;8.48;5.97;;;16.70;93.20;;;;;;5053002;28;20037;-49
2022/01/26 13:14:13;;;;;;;8.20;6.32;;;16.80;90.00;;;;;;5052876;28;20025;-48
2022/01/26 13:16:45;;;;;;;7.78;5.10;;;16.90;92.70;;;;;;5053044;28;20450;-49
2022/01/26 13:19:35;;;;;;;7.97;5.90;;;;;;;;;;5052620;28;20029;-48
2022/01/26 13:25:09;;;;;;;9.55;5.95;;;;;;;;;;5052860;28;20387;-48
2022/01/26 13:28:07;;;;;;;8.80;5.97;;;;;;;;;;5052938;28;20032;-47
2022/01/26 13:36:08;;;;;;;10.18;6.40;;;17.20;87.80;;;;;;5052289;28;20159;-48
2022/01/26 13:39:35;;;;;;;8.52;5.70;;;;;;;;;;5052244;28;20029;-47
2022/01/26 13:44:30;;;;;;;7.80;5.40;;;;;;;;;;5052214;28;20128;-49
2022/01/26 13:52:20;;;;;;;9.15;5.28;;;;;;;;;;5052194;28;20044;-48
2022/01/26 13:55:15;;;;;;;7.80;5.25;;;;;;;;;;5052429;28;20113;-47
2022/01/26 14:00:16;;;;;;;7.93;5.95;;;17.80;92.40;;;;;;5052048;28;20071;-48
2022/01/26 14:02:42;;;;;;;8.68;5.93;;;;;;;;;;5051714;28;20045;-48
2022/01/26 14:05:09;;;;;;;7.68;5.13;;;18.00;91.70;;;;;;5052057;28;20037;-48
2022/01/26 14:07:35;;;;;;;10.82;5.32;;;;;;;;;;5051933;28;20100;-48
2022/01/26 14:10:01;;;;;;;7.95;5.60;;;;;;;;;;5051925;28;20123;-48
2022/01/26 14:12:31;;;;;;;7.50;6.10;;;;;;;;;;5051697;28;20032;-47
2022/01/26 14:14:59;;;;;;;7.13;5.15;;;;;;;;;;5051586;28;20112;-48
2022/01/26 14:25:50;;;;;;;7.32;5.45;;;;;;;;;;5032047;28;20037;-45
2022/01/26 14:28:20;;;;;;;11.00;6.82;;;;;;;;;;5051713;28;20057;-46
2022/01/26 14:31:07;;;;;;;8.57;5.97;;;;;;;;;;5050445;28;20135;-45
2022/01/26 14:36:28;;;;;;;8.23;5.78;;;;;;;;;;5052056;28;20039;-45
2022/01/26 15:09:51;;;;;;;9.20;7.32;;;;;;;;;;5055213;28;20040;-50
2022/01/26 15:30:54;;;;;;;10.05;7.60;;;;;;;;;;5054640;28;20399;-50
2022/01/26 15:50:25;;;;;;;14.70;8.63;;;;;;;;;;5046401;28;20040;-53
2022/01/26 15:58:18;;;;;;;11.30;7.40;;;;;;;;;;5054152;28;20395;-45
2022/01/26 16:04:22;;;;;;;10.73;7.25;;;;;;;;;;5053972;28;20070;-45
2022/01/26 16:38:33;;;;;;;9.75;6.60;;;;;;;;;;5053554;28;20028;-49
2022/01/26 17:48:14;;;;;;;5.70;4.82;;;;;;;;;;5052598;28;20400;-49
2022/01/26 18:16:57;;;;;;;8.15;5.15;;;;;;;;;;5052189;28;20147;-53
2022/01/26 18:51:43;;;;;;;11.70;7.03;;;17.00;93.30;;;;;;5055814;28;20126;-45
2022/01/26 18:54:11;;;;;;;9.15;6.25;;;17.00;93.00;;;;;;5055465;28;20033;-46
2022/01/26 18:56:39;;;;;;;8.13;6.20;;;;;;;;;;5055608;28;20395;-46
2022/01/26 18:59:05;;;;;;;8.55;6.15;;;;;;;;;;5055654;28;20036;-54
2022/01/26 19:01:31;;;;;;;9.23;6.28;;;;;;;;;;5055163;28;20029;-52
2022/01/26 19:03:57;;;;;;;10.05;6.18;;;;;;;;;;5055063;28;20044;-52
2022/01/26 19:06:23;;;;;;;8.05;6.43;;;;;;;;;;5055180;28;20151;-52
2022/01/26 19:08:49;;;;;;;7.40;5.57;;;;;;;;;;5055017;28;20033;-53
2022/01/26 19:11:16;;;;;;;9.13;5.72;;;;;;;;;;5055078;28;20036;-53
2022/01/26 19:13:45;;;;;;;7.53;5.70;;;;;;;;;;5055216;28;20036;-51
2022/01/26 19:16:24;;;;;;;7.35;5.63;;;;;;;;;;5054837;28;20025;-54
2022/01/26 19:41:09;;;;;;;7.00;5.40;;;;;;;;;;5054877;28;20044;-46
2022/01/26 19:51:11;;;;;;;7.53;5.22;;;;;;;;;;5054603;28;20039;-46
2022/01/26 19:53:38;;;;;;;8.75;5.47;;;;;;;;;;5054147;28;20476;-45
2022/01/26 19:56:04;;;;;;;7.45;4.95;;;;;;;;;;5054268;28;20040;-46
2022/01/26 19:58:30;;;;;;;6.15;5.00;;;;;;;;;;5054206;28;20483;-47
2022/01/26 20:00:56;;;;;;;6.38;5.15;;;;;;;;;;5054168;28;20033;-45
2022/01/26 20:03:22;;;;;;;8.93;5.55;;;;;;;;;;5053920;28;20055;-63
2022/01/26 20:05:52;;;;;;;6.97;5.32;;;16.80;91.60;;;;;;5054165;28;20056;-65
2022/01/26 20:10:57;;;;;;;7.55;5.55;;;;;;;;;;5054351;28;20067;-63
2022/01/26 20:13:30;;;;;;;7.45;5.25;;;;;;;;;;5054097;28;20029;-46
2022/01/26 20:15:56;;;;;;;6.43;5.15;;;;;;;;;;5053961;28;20029;-46
2022/01/26 20:18:23;;;;;;;6.93;5.03;;;;;;;;;;5054112;28;20116;-47
2022/01/26 20:20:50;;;;;;;8.10;5.10;;;;;;;;;;5053671;28;20033;-47
2022/01/26 20:23:16;;;;;;;6.35;4.75;;;;;;;;;;5053698;28;20518;-47
2022/01/26 20:25:47;;;;;;;7.47;4.78;;;17.30;92.00;;;;;;5053957;28;20036;-47
2022/01/26 20:28:14;;;;;;;5.68;4.70;;;;;;;;;;5053862;28;20025;-47
2022/01/26 20:30:44;;;;;;;7.07;4.75;;;;;;;;;;5054063;28;20063;-47
2022/01/26 20:33:10;;;;;;;6.13;4.00;;;;;;;;;;5053563;28;20013;-49
2022/01/26 20:35:37;;;;;;;8.40;4.88;;;;;;;;;;5053678;28;20403;-49
2022/01/26 20:38:03;;;;;;;5.45;4.53;;;;;;;;;;5053438;28;20106;-50
2022/01/26 20:40:30;;;;;;;6.38;4.70;;;;;;;;;;5053478;28;20029;-48
2022/01/26 20:42:56;;;;;;;5.90;4.30;;;;;;;;;;5053647;28;20032;-48
2022/01/26 20:45:23;;;;;;;5.60;4.38;;;;;;;;;;5052418;28;20029;-45
2022/01/26 20:47:50;;;;;;;7.30;5.18;;;;;;;;;;5053418;28;20418;-46
2022/01/26 20:50:16;;;;;;;6.57;5.38;;;;;;;;;;5053350;28;20430;-60
2022/01/26 20:52:42;;;;;;;7.35;5.25;;;;;;;;;;5053324;28;20025;-61
2022/01/26 20:55:08;;;;;;;7.47;4.93;;;17.50;91.50;;;;;;5053259;28;20025;-61
2022/01/26 20:57:34;;;;;;;6.90;4.72;;;;;;;;;;5053229;28;20052;-60
2022/01/26 21:00:00;;;;;;;8.60;4.85;;;;;;;;;;5052953;28;20078;-60
2022/01/26 21:02:26;;;;;;;7.00;4.70;;;;;;;;;;5052653;28;20033;-61
2022/01/26 21:04:59;;;;;;;6.55;4.40;;;;;;;;;;5110126;27;20351;-63
2022/01/26 21:07:25;;;;;;;5.75;4.57;;;;;;;;;;5110278;28;20056;-46
2022/01/26 21:09:51;;;;;;;8.27;5.35;;;;;;;;;;5110236;28;20024;-46
2022/01/26 21:12:17;;;;;;;10.57;4.63;;;;;;;;;;5110207;28;20034;-46
2022/01/26 21:14:43;;;;;;;8.70;4.32;;;;;;;;;;5110084;28;20390;-46
2022/01/26 21:17:09;;;;;;;6.45;4.63;;;;;;;;;;5110377;28;20073;-46
2022/01/26 21:19:35;;;;;;;5.45;3.70;;;;;;;;;;5110054;28;20055;-46
2022/01/26 21:22:03;;;;;;;6.22;4.45;;;17.00;91.80;;;;;;5110028;28;20019;-46
2022/01/26 21:24:29;;;;;;;5.80;3.95;;;;;;;;;;5109810;28;20036;-46
2022/01/26 21:26:56;;;;;;;4.65;3.80;;;;;;;;;;5109840;28;20030;-70